sensor_id;sensor_type;location;lat;lon;timestamp;P1;durP1;ratioP1;P2;durP2;ratioP2
22320;SDS011;11328;53.928;18.522;2022-07-10T00:00:51;7.57;;;1.90;;
22320;SDS011;11328;53.928;18.522;2022-07-10T00:03:19;7.40;;;2.03;;
22320;SDS011;11328;53.928;18.522;2022-07-10T00:05:46;7.55;;;2.20;;
22320;SDS011;11328;53.928;18.522;2022-07-10T00:08:15;6.80;;;2.20;;
22320;SDS011;11328;53.928;18.522;2022-07-10T00:10:42;6.45;;;1.60;;
22320;SDS011;11328;53.928;18.522;2022-07-10T00:13:09;8.73;;;2.00;;
22320;SDS011;11328;53.928;18.522;2022-07-10T00:15:36;7.47;;;2.10;;
22320;SDS011;11328;53.928;18.522;2022-07-10T00:18:03;6.93;;;2.25;;
22320;SDS011;11328;53.928;18.522;2022-07-10T00:20:30;10.75;;;2.40;;
22320;SDS011;11328;53.928;18.522;2022-07-10T00:22:58;8.70;;;2.30;;
22320;SDS011;11328;53.928;18.522;2022-07-10T00:25:27;7.03;;;2.10;;
22320;SDS011;11328;53.928;18.522;2022-07-10T00:27:55;8.75;;;2.05;;
22320;SDS011;11328;53.928;18.522;2022-07-10T00:30:22;9.18;;;2.20;;
22320;SDS011;11328;53.928;18.522;2022-07-10T00:32:49;11.07;;;2.10;;
22320;SDS011;11328;53.928;18.522;2022-07-10T00:35:16;10.48;;;2.30;;
22320;SDS011;11328;53.928;18.522;2022-07-10T00:37:43;14.88;;;2.60;;
22320;SDS011;11328;53.928;18.522;2022-07-10T00:40:13;8.57;;;3.13;;
22320;SDS011;11328;53.928;18.522;2022-07-10T00:42:39;10.30;;;3.60;;
22320;SDS011;11328;53.928;18.522;2022-07-10T00:45:06;8.93;;;2.70;;
22320;SDS011;11328;53.928;18.522;2022-07-10T00:47:34;15.82;;;3.13;;
22320;SDS011;11328;53.928;18.522;2022-07-10T00:50:01;8.07;;;2.60;;
22320;SDS011;11328;53.928;18.522;2022-07-10T00:52:29;9.13;;;2.85;;
22320;SDS011;11328;53.928;18.522;2022-07-10T00:54:57;11.10;;;2.67;;
22320;SDS011;11328;53.928;18.522;2022-07-10T00:57:24;12.48;;;3.15;;
22320;SDS011;11328;53.928;18.522;2022-07-10T00:59:51;8.75;;;2.95;;
22320;SDS011;11328;53.928;18.522;2022-07-10T01:02:19;8.25;;;2.50;;
22320;SDS011;11328;53.928;18.522;2022-07-10T01:04:46;11.23;;;2.85;;
22320;SDS011;11328;53.928;18.522;2022-07-10T01:07:13;9.85;;;2.20;;
22320;SDS011;11328;53.928;18.522;2022-07-10T01:09:42;8.95;;;2.38;;
22320;SDS011;11328;53.928;18.522;2022-07-10T01:12:10;7.45;;;2.42;;
22320;SDS011;11328;53.928;18.522;2022-07-10T01:14:38;8.13;;;2.30;;
22320;SDS011;11328;53.928;18.522;2022-07-10T01:17:07;8.50;;;2.30;;
22320;SDS011;11328;53.928;18.522;2022-07-10T01:19:35;9.38;;;2.90;;
22320;SDS011;11328;53.928;18.522;2022-07-10T01:22:02;12.23;;;3.47;;
22320;SDS011;11328;53.928;18.522;2022-07-10T01:24:30;14.75;;;4.43;;
22320;SDS011;11328;53.928;18.522;2022-07-10T01:26:57;13.95;;;4.30;;
22320;SDS011;11328;53.928;18.522;2022-07-10T01:29:24;10.80;;;3.10;;
22320;SDS011;11328;53.928;18.522;2022-07-10T01:31:51;11.23;;;3.17;;
22320;SDS011;11328;53.928;18.522;2022-07-10T01:34:22;10.15;;;3.45;;
22320;SDS011;11328;53.928;18.522;2022-07-10T01:36:50;12.73;;;3.50;;
22320;SDS011;11328;53.928;18.522;2022-07-10T01:39:17;9.40;;;2.40;;
22320;SDS011;11328;53.928;18.522;2022-07-10T01:41:44;8.18;;;2.10;;
22320;SDS011;11328;53.928;18.522;2022-07-10T01:44:11;7.72;;;2.42;;
22320;SDS011;11328;53.928;18.522;2022-07-10T01:46:44;8.13;;;2.50;;
22320;SDS011;11328;53.928;18.522;2022-07-10T01:49:12;10.68;;;3.00;;
22320;SDS011;11328;53.928;18.522;2022-07-10T01:51:40;9.13;;;2.97;;
22320;SDS011;11328;53.928;18.522;2022-07-10T01:54:08;11.45;;;2.78;;
22320;SDS011;11328;53.928;18.522;2022-07-10T01:56:35;6.55;;;2.53;;
22320;SDS011;11328;53.928;18.522;2022-07-10T01:59:02;14.10;;;2.33;;
22320;SDS011;11328;53.928;18.522;2022-07-10T02:01:30;11.45;;;1.83;;
22320;SDS011;11328;53.928;18.522;2022-07-10T02:03:58;24.25;;;3.08;;
22320;SDS011;11328;53.928;18.522;2022-07-10T02:06:43;9.32;;;2.13;;
22320;SDS011;11328;53.928;18.522;2022-07-10T02:09:10;15.07;;;2.40;;
22320;SDS011;11328;53.928;18.522;2022-07-10T02:11:37;12.27;;;2.25;;
22320;SDS011;11328;53.928;18.522;2022-07-10T02:14:04;7.47;;;1.70;;
22320;SDS011;11328;53.928;18.522;2022-07-10T02:16:31;8.30;;;2.00;;
22320;SDS011;11328;53.928;18.522;2022-07-10T02:18:58;10.30;;;2.05;;
22320;SDS011;11328;53.928;18.522;2022-07-10T02:21:25;8.93;;;1.80;;
22320;SDS011;11328;53.928;18.522;2022-07-10T02:23:52;13.93;;;2.10;;
22320;SDS011;11328;53.928;18.522;2022-07-10T02:26:19;8.10;;;1.70;;
22320;SDS011;11328;53.928;18.522;2022-07-10T02:28:46;8.05;;;1.90;;
22320;SDS011;11328;53.928;18.522;2022-07-10T02:31:13;6.80;;;1.77;;
22320;SDS011;11328;53.928;18.522;2022-07-10T02:33:40;7.28;;;1.70;;
22320;SDS011;11328;53.928;18.522;2022-07-10T02:36:07;7.93;;;1.70;;
22320;SDS011;11328;53.928;18.522;2022-07-10T02:38:34;9.07;;;2.20;;
22320;SDS011;11328;53.928;18.522;2022-07-10T02:41:01;9.15;;;1.77;;
22320;SDS011;11328;53.928;18.522;2022-07-10T02:43:28;11.13;;;2.10;;
22320;SDS011;11328;53.928;18.522;2022-07-10T02:45:55;11.32;;;1.90;;
22320;SDS011;11328;53.928;18.522;2022-07-10T02:48:22;12.30;;;1.95;;
22320;SDS011;11328;53.928;18.522;2022-07-10T02:50:49;18.25;;;2.30;;
22320;SDS011;11328;53.928;18.522;2022-07-10T02:53:16;9.13;;;1.73;;
22320;SDS011;11328;53.928;18.522;2022-07-10T02:55:43;7.30;;;1.80;;
22320;SDS011;11328;53.928;18.522;2022-07-10T02:58:10;9.70;;;2.10;;
22320;SDS011;11328;53.928;18.522;2022-07-10T03:00:37;9.93;;;1.98;;
22320;SDS011;11328;53.928;18.522;2022-07-10T03:03:06;8.88;;;1.75;;
22320;SDS011;11328;53.928;18.522;2022-07-10T03:05:34;8.90;;;1.92;;
22320;SDS011;11328;53.928;18.522;2022-07-10T03:08:01;8.80;;;1.65;;
22320;SDS011;11328;53.928;18.522;2022-07-10T03:10:27;10.15;;;1.95;;
22320;SDS011;11328;53.928;18.522;2022-07-10T03:12:54;9.15;;;1.90;;
22320;SDS011;11328;53.928;18.522;2022-07-10T03:15:21;8.90;;;2.15;;
22320;SDS011;11328;53.928;18.522;2022-07-10T03:17:49;11.13;;;1.80;;
22320;SDS011;11328;53.928;18.522;2022-07-10T03:20:16;11.30;;;1.98;;
22320;SDS011;11328;53.928;18.522;2022-07-10T03:22:43;7.30;;;1.90;;
22320;SDS011;11328;53.928;18.522;2022-07-10T03:25:10;9.15;;;1.83;;
22320;SDS011;11328;53.928;18.522;2022-07-10T03:27:37;7.13;;;1.85;;
22320;SDS011;11328;53.928;18.522;2022-07-10T03:30:04;8.77;;;1.48;;
22320;SDS011;11328;53.928;18.522;2022-07-10T03:32:32;9.40;;;2.22;;
22320;SDS011;11328;53.928;18.522;2022-07-10T03:34:59;7.82;;;1.75;;
22320;SDS011;11328;53.928;18.522;2022-07-10T03:37:27;7.88;;;2.00;;
22320;SDS011;11328;53.928;18.522;2022-07-10T03:39:54;8.18;;;1.63;;
22320;SDS011;11328;53.928;18.522;2022-07-10T03:42:21;10.50;;;1.95;;
22320;SDS011;11328;53.928;18.522;2022-07-10T03:44:48;6.25;;;1.70;;
22320;SDS011;11328;53.928;18.522;2022-07-10T03:47:14;11.43;;;1.70;;
22320;SDS011;11328;53.928;18.522;2022-07-10T03:49:41;7.72;;;1.65;;
22320;SDS011;11328;53.928;18.522;2022-07-10T03:52:08;7.72;;;1.80;;
22320;SDS011;11328;53.928;18.522;2022-07-10T03:54:35;10.52;;;1.88;;
22320;SDS011;11328;53.928;18.522;2022-07-10T03:57:03;5.75;;;1.50;;
22320;SDS011;11328;53.928;18.522;2022-07-10T03:59:48;9.95;;;1.92;;
22320;SDS011;11328;53.928;18.522;2022-07-10T04:02:15;10.05;;;1.83;;
22320;SDS011;11328;53.928;18.522;2022-07-10T04:04:42;7.85;;;1.98;;
22320;SDS011;11328;53.928;18.522;2022-07-10T04:07:10;7.75;;;1.95;;
22320;SDS011;11328;53.928;18.522;2022-07-10T04:09:38;9.55;;;1.80;;
22320;SDS011;11328;53.928;18.522;2022-07-10T04:12:06;8.43;;;1.67;;
22320;SDS011;11328;53.928;18.522;2022-07-10T04:14:33;6.70;;;1.40;;
22320;SDS011;11328;53.928;18.522;2022-07-10T04:17:00;7.93;;;1.85;;
22320;SDS011;11328;53.928;18.522;2022-07-10T04:19:27;7.35;;;1.75;;
22320;SDS011;11328;53.928;18.522;2022-07-10T04:21:54;9.25;;;1.70;;
22320;SDS011;11328;53.928;18.522;2022-07-10T04:24:20;8.82;;;1.92;;
22320;SDS011;11328;53.928;18.522;2022-07-10T04:26:47;8.70;;;1.90;;
22320;SDS011;11328;53.928;18.522;2022-07-10T04:29:14;10.05;;;1.70;;
22320;SDS011;11328;53.928;18.522;2022-07-10T04:31:41;9.00;;;1.85;;
22320;SDS011;11328;53.928;18.522;2022-07-10T04:34:08;10.57;;;2.10;;
22320;SDS011;11328;53.928;18.522;2022-07-10T04:36:35;8.20;;;1.63;;
22320;SDS011;11328;53.928;18.522;2022-07-10T04:39:02;14.48;;;2.20;;
22320;SDS011;11328;53.928;18.522;2022-07-10T04:41:29;7.53;;;2.00;;
22320;SDS011;11328;53.928;18.522;2022-07-10T04:43:56;6.15;;;1.50;;
22320;SDS011;11328;53.928;18.522;2022-07-10T04:46:23;9.38;;;1.65;;
22320;SDS011;11328;53.928;18.522;2022-07-10T04:48:50;7.70;;;1.70;;
22320;SDS011;11328;53.928;18.522;2022-07-10T04:51:18;8.70;;;1.90;;
22320;SDS011;11328;53.928;18.522;2022-07-10T04:53:45;8.75;;;2.00;;
22320;SDS011;11328;53.928;18.522;2022-07-10T04:56:12;7.68;;;1.75;;
22320;SDS011;11328;53.928;18.522;2022-07-10T04:58:39;9.07;;;1.92;;
22320;SDS011;11328;53.928;18.522;2022-07-10T05:01:07;12.00;;;1.88;;
22320;SDS011;11328;53.928;18.522;2022-07-10T05:03:34;7.93;;;1.80;;
22320;SDS011;11328;53.928;18.522;2022-07-10T05:06:01;10.98;;;1.85;;
22320;SDS011;11328;53.928;18.522;2022-07-10T05:08:28;8.73;;;1.92;;
22320;SDS011;11328;53.928;18.522;2022-07-10T05:10:55;11.45;;;1.77;;
22320;SDS011;11328;53.928;18.522;2022-07-10T05:13:22;11.55;;;2.20;;
22320;SDS011;11328;53.928;18.522;2022-07-10T05:15:49;12.45;;;1.73;;
22320;SDS011;11328;53.928;18.522;2022-07-10T05:18:16;8.10;;;1.75;;
22320;SDS011;11328;53.928;18.522;2022-07-10T05:20:43;5.22;;;1.65;;
22320;SDS011;11328;53.928;18.522;2022-07-10T05:23:13;10.75;;;1.90;;
22320;SDS011;11328;53.928;18.522;2022-07-10T05:25:41;9.73;;;1.90;;
22320;SDS011;11328;53.928;18.522;2022-07-10T05:28:08;10.55;;;1.92;;
22320;SDS011;11328;53.928;18.522;2022-07-10T05:30:35;5.93;;;1.65;;
22320;SDS011;11328;53.928;18.522;2022-07-10T05:33:02;8.35;;;1.60;;
22320;SDS011;11328;53.928;18.522;2022-07-10T05:35:29;10.48;;;1.73;;
22320;SDS011;11328;53.928;18.522;2022-07-10T05:37:56;19.55;;;1.88;;
22320;SDS011;11328;53.928;18.522;2022-07-10T05:40:23;7.90;;;1.70;;
22320;SDS011;11328;53.928;18.522;2022-07-10T05:42:50;9.65;;;1.45;;
22320;SDS011;11328;53.928;18.522;2022-07-10T05:45:18;12.93;;;1.50;;
22320;SDS011;11328;53.928;18.522;2022-07-10T05:47:45;8.80;;;1.60;;
22320;SDS011;11328;53.928;18.522;2022-07-10T05:50:12;8.15;;;1.88;;
22320;SDS011;11328;53.928;18.522;2022-07-10T05:52:39;8.23;;;1.42;;
22320;SDS011;11328;53.928;18.522;2022-07-10T05:55:07;9.45;;;1.55;;
22320;SDS011;11328;53.928;18.522;2022-07-10T05:57:34;8.38;;;1.60;;
22320;SDS011;11328;53.928;18.522;2022-07-10T06:00:03;7.32;;;1.50;;
22320;SDS011;11328;53.928;18.522;2022-07-10T06:02:32;9.93;;;1.95;;
22320;SDS011;11328;53.928;18.522;2022-07-10T06:05:00;9.63;;;1.75;;
22320;SDS011;11328;53.928;18.522;2022-07-10T06:07:27;4.65;;;1.55;;
22320;SDS011;11328;53.928;18.522;2022-07-10T06:09:54;5.38;;;1.58;;
22320;SDS011;11328;53.928;18.522;2022-07-10T06:12:21;8.82;;;1.95;;
22320;SDS011;11328;53.928;18.522;2022-07-10T06:14:48;8.77;;;2.03;;
22320;SDS011;11328;53.928;18.522;2022-07-10T06:17:15;8.90;;;1.60;;
22320;SDS011;11328;53.928;18.522;2022-07-10T06:19:42;8.07;;;1.80;;
22320;SDS011;11328;53.928;18.522;2022-07-10T06:22:09;8.40;;;2.25;;
22320;SDS011;11328;53.928;18.522;2022-07-10T06:24:58;8.27;;;1.65;;
22320;SDS011;11328;53.928;18.522;2022-07-10T06:27:33;10.00;;;1.60;;
22320;SDS011;11328;53.928;18.522;2022-07-10T06:30:00;6.80;;;1.70;;
22320;SDS011;11328;53.928;18.522;2022-07-10T06:32:27;8.13;;;2.10;;
22320;SDS011;11328;53.928;18.522;2022-07-10T06:34:55;7.32;;;1.80;;
22320;SDS011;11328;53.928;18.522;2022-07-10T06:37:22;4.95;;;1.65;;
22320;SDS011;11328;53.928;18.522;2022-07-10T06:39:49;8.80;;;1.80;;
22320;SDS011;11328;53.928;18.522;2022-07-10T06:42:16;9.38;;;1.98;;
22320;SDS011;11328;53.928;18.522;2022-07-10T06:44:43;8.52;;;1.98;;
22320;SDS011;11328;53.928;18.522;2022-07-10T06:47:15;12.35;;;2.67;;
22320;SDS011;11328;53.928;18.522;2022-07-10T06:50:04;6.43;;;1.60;;
22320;SDS011;11328;53.928;18.522;2022-07-10T06:52:33;8.75;;;1.73;;
22320;SDS011;11328;53.928;18.522;2022-07-10T06:55:02;9.18;;;2.03;;
22320;SDS011;11328;53.928;18.522;2022-07-10T06:57:30;7.97;;;1.80;;
22320;SDS011;11328;53.928;18.522;2022-07-10T06:59:57;8.50;;;1.80;;
22320;SDS011;11328;53.928;18.522;2022-07-10T07:02:24;9.48;;;1.88;;
22320;SDS011;11328;53.928;18.522;2022-07-10T07:04:52;9.15;;;2.20;;
22320;SDS011;11328;53.928;18.522;2022-07-10T07:07:19;7.47;;;1.98;;
22320;SDS011;11328;53.928;18.522;2022-07-10T07:09:50;6.63;;;1.58;;
22320;SDS011;11328;53.928;18.522;2022-07-10T07:12:18;6.75;;;1.75;;
22320;SDS011;11328;53.928;18.522;2022-07-10T07:14:45;10.35;;;2.42;;
22320;SDS011;11328;53.928;18.522;2022-07-10T07:17:13;7.25;;;1.67;;
22320;SDS011;11328;53.928;18.522;2022-07-10T07:19:51;6.88;;;1.80;;
22320;SDS011;11328;53.928;18.522;2022-07-10T07:22:40;6.55;;;1.65;;
22320;SDS011;11328;53.928;18.522;2022-07-10T07:25:26;8.60;;;1.52;;
22320;SDS011;11328;53.928;18.522;2022-07-10T07:27:53;6.45;;;1.55;;
22320;SDS011;11328;53.928;18.522;2022-07-10T07:30:20;7.38;;;1.70;;
22320;SDS011;11328;53.928;18.522;2022-07-10T07:32:47;7.15;;;1.80;;
22320;SDS011;11328;53.928;18.522;2022-07-10T07:35:14;5.47;;;1.40;;
22320;SDS011;11328;53.928;18.522;2022-07-10T07:37:43;5.28;;;1.52;;
22320;SDS011;11328;53.928;18.522;2022-07-10T07:40:34;6.90;;;1.42;;
22320;SDS011;11328;53.928;18.522;2022-07-10T07:43:03;6.35;;;1.40;;
22320;SDS011;11328;53.928;18.522;2022-07-10T07:45:30;11.32;;;2.13;;
22320;SDS011;11328;53.928;18.522;2022-07-10T07:47:58;8.50;;;1.90;;
22320;SDS011;11328;53.928;18.522;2022-07-10T07:50:29;5.78;;;1.55;;
22320;SDS011;11328;53.928;18.522;2022-07-10T07:53:02;6.13;;;1.73;;
22320;SDS011;11328;53.928;18.522;2022-07-10T07:55:31;7.47;;;1.90;;
22320;SDS011;11328;53.928;18.522;2022-07-10T07:58:01;8.77;;;1.58;;
22320;SDS011;11328;53.928;18.522;2022-07-10T08:00:29;7.28;;;1.95;;
22320;SDS011;11328;53.928;18.522;2022-07-10T08:02:57;6.13;;;1.85;;
22320;SDS011;11328;53.928;18.522;2022-07-10T08:05:27;8.55;;;1.92;;
22320;SDS011;11328;53.928;18.522;2022-07-10T08:07:56;5.30;;;1.50;;
22320;SDS011;11328;53.928;18.522;2022-07-10T08:10:49;7.03;;;1.83;;
22320;SDS011;11328;53.928;18.522;2022-07-10T08:13:18;6.03;;;1.67;;
22320;SDS011;11328;53.928;18.522;2022-07-10T08:15:45;7.30;;;1.70;;
22320;SDS011;11328;53.928;18.522;2022-07-10T08:18:12;14.95;;;2.00;;
22320;SDS011;11328;53.928;18.522;2022-07-10T08:20:39;5.95;;;1.52;;
22320;SDS011;11328;53.928;18.522;2022-07-10T08:23:07;6.15;;;1.77;;
22320;SDS011;11328;53.928;18.522;2022-07-10T08:25:34;6.85;;;1.50;;
22320;SDS011;11328;53.928;18.522;2022-07-10T08:28:02;9.73;;;1.73;;
22320;SDS011;11328;53.928;18.522;2022-07-10T08:30:32;9.18;;;1.70;;
22320;SDS011;11328;53.928;18.522;2022-07-10T08:32:59;5.38;;;1.55;;
22320;SDS011;11328;53.928;18.522;2022-07-10T08:35:26;9.23;;;2.20;;
22320;SDS011;11328;53.928;18.522;2022-07-10T08:37:53;6.43;;;1.50;;
22320;SDS011;11328;53.928;18.522;2022-07-10T08:40:21;7.20;;;2.17;;
22320;SDS011;11328;53.928;18.522;2022-07-10T08:42:49;12.32;;;1.73;;
22320;SDS011;11328;53.928;18.522;2022-07-10T08:45:18;5.43;;;1.40;;
22320;SDS011;11328;53.928;18.522;2022-07-10T08:47:45;6.03;;;1.60;;
22320;SDS011;11328;53.928;18.522;2022-07-10T08:50:22;7.13;;;1.58;;
22320;SDS011;11328;53.928;18.522;2022-07-10T08:55:39;6.43;;;1.60;;
22320;SDS011;11328;53.928;18.522;2022-07-10T08:58:07;7.97;;;1.85;;
22320;SDS011;11328;53.928;18.522;2022-07-10T09:00:36;11.43;;;2.00;;
22320;SDS011;11328;53.928;18.522;2022-07-10T09:03:07;8.10;;;1.60;;
22320;SDS011;11328;53.928;18.522;2022-07-10T09:05:34;8.00;;;1.88;;
22320;SDS011;11328;53.928;18.522;2022-07-10T09:08:02;8.88;;;1.60;;
22320;SDS011;11328;53.928;18.522;2022-07-10T09:10:29;8.77;;;1.48;;
22320;SDS011;11328;53.928;18.522;2022-07-10T09:12:57;5.53;;;1.48;;
22320;SDS011;11328;53.928;18.522;2022-07-10T09:15:28;4.63;;;1.42;;
22320;SDS011;11328;53.928;18.522;2022-07-10T09:18:03;8.65;;;1.73;;
22320;SDS011;11328;53.928;18.522;2022-07-10T09:20:38;7.47;;;1.67;;
22320;SDS011;11328;53.928;18.522;2022-07-10T09:23:19;7.55;;;1.48;;
22320;SDS011;11328;53.928;18.522;2022-07-10T09:25:49;7.35;;;1.80;;
22320;SDS011;11328;53.928;18.522;2022-07-10T09:28:19;9.80;;;1.52;;
22320;SDS011;11328;53.928;18.522;2022-07-10T09:30:48;6.53;;;1.55;;
22320;SDS011;11328;53.928;18.522;2022-07-10T09:33:20;8.48;;;1.70;;
22320;SDS011;11328;53.928;18.522;2022-07-10T09:35:56;7.55;;;1.60;;
22320;SDS011;11328;53.928;18.522;2022-07-10T09:43:44;8.80;;;1.73;;
22320;SDS011;11328;53.928;18.522;2022-07-10T09:46:23;10.27;;;1.67;;
22320;SDS011;11328;53.928;18.522;2022-07-10T09:49:08;7.97;;;1.73;;
22320;SDS011;11328;53.928;18.522;2022-07-10T09:51:44;8.73;;;1.27;;
22320;SDS011;11328;53.928;18.522;2022-07-10T09:54:15;5.53;;;1.48;;
22320;SDS011;11328;53.928;18.522;2022-07-10T09:56:45;5.85;;;1.02;;
22320;SDS011;11328;53.928;18.522;2022-07-10T09:59:18;6.68;;;1.75;;
22320;SDS011;11328;53.928;18.522;2022-07-10T10:01:50;5.55;;;1.20;;
22320;SDS011;11328;53.928;18.522;2022-07-10T10:04:19;5.50;;;1.63;;
22320;SDS011;11328;53.928;18.522;2022-07-10T10:06:51;7.50;;;1.23;;
22320;SDS011;11328;53.928;18.522;2022-07-10T10:09:25;8.38;;;1.55;;
22320;SDS011;11328;53.928;18.522;2022-07-10T10:12:07;16.80;;;1.92;;
22320;SDS011;11328;53.928;18.522;2022-07-10T10:15:33;7.50;;;1.13;;
22320;SDS011;11328;53.928;18.522;2022-07-10T10:18:02;5.80;;;1.40;;
22320;SDS011;11328;53.928;18.522;2022-07-10T10:20:31;11.18;;;1.55;;
22320;SDS011;11328;53.928;18.522;2022-07-10T10:23:09;3.45;;;0.90;;
22320;SDS011;11328;53.928;18.522;2022-07-10T10:25:40;4.65;;;1.40;;
22320;SDS011;11328;53.928;18.522;2022-07-10T10:28:09;3.25;;;1.00;;
22320;SDS011;11328;53.928;18.522;2022-07-10T10:30:42;4.80;;;1.65;;
22320;SDS011;11328;53.928;18.522;2022-07-10T10:33:45;3.17;;;1.05;;
22320;SDS011;11328;53.928;18.522;2022-07-10T10:36:12;3.83;;;1.25;;
22320;SDS011;11328;53.928;18.522;2022-07-10T10:39:02;5.07;;;1.00;;
22320;SDS011;11328;53.928;18.522;2022-07-10T10:41:40;4.88;;;0.82;;
22320;SDS011;11328;53.928;18.522;2022-07-10T10:44:19;4.55;;;1.10;;
22320;SDS011;11328;53.928;18.522;2022-07-10T10:49:21;3.92;;;1.30;;
22320;SDS011;11328;53.928;18.522;2022-07-10T10:51:59;5.20;;;1.10;;
22320;SDS011;11328;53.928;18.522;2022-07-10T10:57:33;6.60;;;1.13;;
22320;SDS011;11328;53.928;18.522;2022-07-10T11:00:04;8.38;;;1.38;;
22320;SDS011;11328;53.928;18.522;2022-07-10T11:02:34;9.75;;;1.58;;
22320;SDS011;11328;53.928;18.522;2022-07-10T11:13:17;11.50;;;1.92;;
22320;SDS011;11328;53.928;18.522;2022-07-10T11:15:46;7.68;;;1.67;;
22320;SDS011;11328;53.928;18.522;2022-07-10T11:18:17;18.38;;;2.45;;
22320;SDS011;11328;53.928;18.522;2022-07-10T11:20:49;9.20;;;2.10;;
22320;SDS011;11328;53.928;18.522;2022-07-10T11:26:36;8.88;;;2.00;;
22320;SDS011;11328;53.928;18.522;2022-07-10T11:29:25;42.97;;;3.13;;
22320;SDS011;11328;53.928;18.522;2022-07-10T11:31:54;5.28;;;1.23;;
22320;SDS011;11328;53.928;18.522;2022-07-10T11:34:21;9.75;;;1.42;;
22320;SDS011;11328;53.928;18.522;2022-07-10T11:36:49;5.63;;;1.20;;
22320;SDS011;11328;53.928;18.522;2022-07-10T11:39:16;9.65;;;1.50;;
22320;SDS011;11328;53.928;18.522;2022-07-10T11:41:46;9.95;;;1.67;;
22320;SDS011;11328;53.928;18.522;2022-07-10T11:44:14;8.18;;;1.77;;
22320;SDS011;11328;53.928;18.522;2022-07-10T11:46:43;11.77;;;2.25;;
22320;SDS011;11328;53.928;18.522;2022-07-10T11:49:15;6.95;;;1.60;;
22320;SDS011;11328;53.928;18.522;2022-07-10T11:51:44;9.02;;;1.88;;
22320;SDS011;11328;53.928;18.522;2022-07-10T11:54:12;6.78;;;1.77;;
22320;SDS011;11328;53.928;18.522;2022-07-10T11:56:46;14.88;;;1.80;;
22320;SDS011;11328;53.928;18.522;2022-07-10T12:04:15;8.27;;;1.83;;
22320;SDS011;11328;53.928;18.522;2022-07-10T12:06:46;6.55;;;1.40;;
22320;SDS011;11328;53.928;18.522;2022-07-10T12:09:15;8.63;;;1.80;;
22320;SDS011;11328;53.928;18.522;2022-07-10T12:11:56;7.93;;;1.25;;
22320;SDS011;11328;53.928;18.522;2022-07-10T12:14:32;11.18;;;1.77;;
22320;SDS011;11328;53.928;18.522;2022-07-10T12:17:00;10.00;;;2.10;;
22320;SDS011;11328;53.928;18.522;2022-07-10T12:19:36;4.35;;;1.35;;
22320;SDS011;11328;53.928;18.522;2022-07-10T12:22:05;7.72;;;1.90;;
22320;SDS011;11328;53.928;18.522;2022-07-10T12:24:32;7.20;;;1.73;;
22320;SDS011;11328;53.928;18.522;2022-07-10T12:27:00;5.28;;;1.52;;
22320;SDS011;11328;53.928;18.522;2022-07-10T12:29:27;4.68;;;1.30;;
22320;SDS011;11328;53.928;18.522;2022-07-10T12:31:56;6.65;;;1.23;;
22320;SDS011;11328;53.928;18.522;2022-07-10T12:34:34;7.20;;;1.73;;
22320;SDS011;11328;53.928;18.522;2022-07-10T12:37:11;6.88;;;1.38;;
22320;SDS011;11328;53.928;18.522;2022-07-10T12:39:47;5.72;;;1.33;;
22320;SDS011;11328;53.928;18.522;2022-07-10T12:42:28;7.88;;;1.48;;
22320;SDS011;11328;53.928;18.522;2022-07-10T12:45:13;9.05;;;1.77;;
22320;SDS011;11328;53.928;18.522;2022-07-10T12:47:48;5.03;;;1.40;;
22320;SDS011;11328;53.928;18.522;2022-07-10T12:50:17;5.78;;;1.40;;
22320;SDS011;11328;53.928;18.522;2022-07-10T12:52:44;6.57;;;1.65;;
22320;SDS011;11328;53.928;18.522;2022-07-10T12:55:19;7.80;;;1.73;;
22320;SDS011;11328;53.928;18.522;2022-07-10T12:57:49;8.98;;;2.00;;
22320;SDS011;11328;53.928;18.522;2022-07-10T13:00:28;7.03;;;1.70;;
22320;SDS011;11328;53.928;18.522;2022-07-10T13:03:06;6.40;;;1.75;;
22320;SDS011;11328;53.928;18.522;2022-07-10T13:05:39;7.43;;;1.63;;
22320;SDS011;11328;53.928;18.522;2022-07-10T13:08:09;7.03;;;1.73;;
22320;SDS011;11328;53.928;18.522;2022-07-10T13:10:41;8.07;;;1.70;;
22320;SDS011;11328;53.928;18.522;2022-07-10T13:13:11;7.82;;;1.88;;
22320;SDS011;11328;53.928;18.522;2022-07-10T13:15:38;8.52;;;1.90;;
22320;SDS011;11328;53.928;18.522;2022-07-10T13:18:07;7.22;;;1.60;;
22320;SDS011;11328;53.928;18.522;2022-07-10T13:20:34;18.30;;;2.65;;
22320;SDS011;11328;53.928;18.522;2022-07-10T13:23:01;18.35;;;2.22;;
22320;SDS011;11328;53.928;18.522;2022-07-10T13:25:28;7.57;;;1.52;;
22320;SDS011;11328;53.928;18.522;2022-07-10T13:27:56;9.82;;;1.80;;
22320;SDS011;11328;53.928;18.522;2022-07-10T13:30:23;7.15;;;1.90;;
22320;SDS011;11328;53.928;18.522;2022-07-10T13:32:50;6.80;;;1.90;;
22320;SDS011;11328;53.928;18.522;2022-07-10T13:35:17;6.88;;;1.65;;
22320;SDS011;11328;53.928;18.522;2022-07-10T13:37:44;5.70;;;1.60;;
22320;SDS011;11328;53.928;18.522;2022-07-10T13:40:12;4.03;;;1.27;;
22320;SDS011;11328;53.928;18.522;2022-07-10T13:42:39;5.63;;;1.50;;
22320;SDS011;11328;53.928;18.522;2022-07-10T13:45:07;6.50;;;1.42;;
22320;SDS011;11328;53.928;18.522;2022-07-10T13:47:34;9.80;;;1.48;;
22320;SDS011;11328;53.928;18.522;2022-07-10T13:50:01;6.00;;;1.33;;
22320;SDS011;11328;53.928;18.522;2022-07-10T13:52:29;4.07;;;1.20;;
22320;SDS011;11328;53.928;18.522;2022-07-10T13:54:56;4.07;;;1.00;;
22320;SDS011;11328;53.928;18.522;2022-07-10T13:57:23;4.07;;;1.25;;
22320;SDS011;11328;53.928;18.522;2022-07-10T13:59:52;5.28;;;1.20;;
22320;SDS011;11328;53.928;18.522;2022-07-10T14:02:20;3.38;;;1.20;;
22320;SDS011;11328;53.928;18.522;2022-07-10T14:04:47;2.53;;;1.10;;
22320;SDS011;11328;53.928;18.522;2022-07-10T14:07:14;4.50;;;1.50;;
22320;SDS011;11328;53.928;18.522;2022-07-10T14:09:41;6.03;;;1.95;;
22320;SDS011;11328;53.928;18.522;2022-07-10T14:12:08;7.57;;;1.63;;
22320;SDS011;11328;53.928;18.522;2022-07-10T14:14:35;7.32;;;1.65;;
22320;SDS011;11328;53.928;18.522;2022-07-10T14:17:02;5.13;;;1.35;;
22320;SDS011;11328;53.928;18.522;2022-07-10T14:19:29;5.57;;;1.48;;
22320;SDS011;11328;53.928;18.522;2022-07-10T14:21:56;10.88;;;5.35;;
22320;SDS011;11328;53.928;18.522;2022-07-10T14:24:24;8.85;;;2.58;;
22320;SDS011;11328;53.928;18.522;2022-07-10T14:26:51;3.78;;;1.10;;
22320;SDS011;11328;53.928;18.522;2022-07-10T14:29:19;4.32;;;1.38;;
22320;SDS011;11328;53.928;18.522;2022-07-10T14:31:56;5.88;;;1.35;;
22320;SDS011;11328;53.928;18.522;2022-07-10T14:34:43;4.63;;;1.20;;
22320;SDS011;11328;53.928;18.522;2022-07-10T14:37:10;5.63;;;1.35;;
22320;SDS011;11328;53.928;18.522;2022-07-10T14:39:37;6.57;;;1.33;;
22320;SDS011;11328;53.928;18.522;2022-07-10T14:42:04;6.18;;;1.40;;
22320;SDS011;11328;53.928;18.522;2022-07-10T14:44:34;4.85;;;1.00;;
22320;SDS011;11328;53.928;18.522;2022-07-10T14:47:02;5.97;;;1.25;;
22320;SDS011;11328;53.928;18.522;2022-07-10T14:49:30;7.18;;;1.17;;
22320;SDS011;11328;53.928;18.522;2022-07-10T14:51:57;6.68;;;1.13;;
22320;SDS011;11328;53.928;18.522;2022-07-10T14:54:24;4.75;;;1.45;;
22320;SDS011;11328;53.928;18.522;2022-07-10T14:56:52;5.63;;;2.40;;
22320;SDS011;11328;53.928;18.522;2022-07-10T14:59:19;9.68;;;3.67;;
22320;SDS011;11328;53.928;18.522;2022-07-10T15:01:46;6.50;;;1.80;;
22320;SDS011;11328;53.928;18.522;2022-07-10T15:04:13;7.20;;;1.70;;
22320;SDS011;11328;53.928;18.522;2022-07-10T15:06:40;5.18;;;1.55;;
22320;SDS011;11328;53.928;18.522;2022-07-10T15:09:07;10.68;;;2.33;;
22320;SDS011;11328;53.928;18.522;2022-07-10T15:11:34;5.07;;;1.13;;
22320;SDS011;11328;53.928;18.522;2022-07-10T15:14:02;4.20;;;1.00;;